sensor_id;sensor_type;location;lat;lon;timestamp;P1;durP1;ratioP1;P2;durP2;ratioP2
66721;SDS011;53633;49.932;10.884;2022-08-02T00:00:49;6.38;;;3.47;;
66721;SDS011;53633;49.932;10.884;2022-08-02T00:03:21;7.45;;;3.63;;
66721;SDS011;53633;49.932;10.884;2022-08-02T00:05:50;6.90;;;3.03;;
66721;SDS011;53633;49.932;10.884;2022-08-02T00:08:20;7.28;;;3.13;;
66721;SDS011;53633;49.932;10.884;2022-08-02T00:10:47;6.43;;;2.80;;
66721;SDS011;53633;49.932;10.884;2022-08-02T00:13:14;6.80;;;2.25;;
66721;SDS011;53633;49.932;10.884;2022-08-02T00:15:41;6.57;;;2.58;;
66721;SDS011;53633;49.932;10.884;2022-08-02T00:18:08;6.87;;;2.70;;
66721;SDS011;53633;49.932;10.884;2022-08-02T00:20:34;7.32;;;2.45;;
66721;SDS011;53633;49.932;10.884;2022-08-02T00:23:01;5.28;;;2.05;;
66721;SDS011;53633;49.932;10.884;2022-08-02T00:25:29;6.68;;;2.55;;
66721;SDS011;53633;49.932;10.884;2022-08-02T00:27:56;5.45;;;2.38;;
66721;SDS011;53633;49.932;10.884;2022-08-02T00:30:23;6.03;;;2.43;;
66721;SDS011;53633;49.932;10.884;2022-08-02T00:32:50;6.10;;;2.70;;
66721;SDS011;53633;49.932;10.884;2022-08-02T00:35:16;7.22;;;2.85;;
66721;SDS011;53633;49.932;10.884;2022-08-02T00:37:43;7.25;;;2.35;;
66721;SDS011;53633;49.932;10.884;2022-08-02T00:40:10;5.93;;;2.47;;
66721;SDS011;53633;49.932;10.884;2022-08-02T00:42:39;5.43;;;1.97;;
66721;SDS011;53633;49.932;10.884;2022-08-02T00:45:06;5.00;;;1.83;;
66721;SDS011;53633;49.932;10.884;2022-08-02T00:47:33;5.57;;;1.70;;
66721;SDS011;53633;49.932;10.884;2022-08-02T00:50:00;5.07;;;2.05;;
66721;SDS011;53633;49.932;10.884;2022-08-02T00:52:27;6.10;;;2.47;;
66721;SDS011;53633;49.932;10.884;2022-08-02T00:54:53;6.00;;;2.10;;
66721;SDS011;53633;49.932;10.884;2022-08-02T00:57:20;4.88;;;2.00;;
66721;SDS011;53633;49.932;10.884;2022-08-02T00:59:48;5.00;;;1.90;;
66721;SDS011;53633;49.932;10.884;2022-08-02T01:02:15;6.45;;;2.47;;
66721;SDS011;53633;49.932;10.884;2022-08-02T01:04:42;6.28;;;2.13;;
66721;SDS011;53633;49.932;10.884;2022-08-02T01:07:09;8.37;;;2.40;;
66721;SDS011;53633;49.932;10.884;2022-08-02T01:09:39;5.15;;;2.33;;
66721;SDS011;53633;49.932;10.884;2022-08-02T01:12:06;5.50;;;2.30;;
66721;SDS011;53633;49.932;10.884;2022-08-02T01:14:34;4.97;;;1.88;;
66721;SDS011;53633;49.932;10.884;2022-08-02T01:17:04;7.25;;;1.95;;
66721;SDS011;53633;49.932;10.884;2022-08-02T01:19:36;6.90;;;2.00;;
66721;SDS011;53633;49.932;10.884;2022-08-02T01:22:15;5.35;;;2.20;;
66721;SDS011;53633;49.932;10.884;2022-08-02T01:25:32;7.18;;;2.35;;
66721;SDS011;53633;49.932;10.884;2022-08-02T01:31:03;4.80;;;2.10;;
66721;SDS011;53633;49.932;10.884;2022-08-02T01:33:38;5.13;;;1.87;;
66721;SDS011;53633;49.932;10.884;2022-08-02T01:36:09;6.20;;;1.98;;
66721;SDS011;53633;49.932;10.884;2022-08-02T01:38:39;5.95;;;1.73;;
66721;SDS011;53633;49.932;10.884;2022-08-02T01:41:09;4.53;;;1.80;;
66721;SDS011;53633;49.932;10.884;2022-08-02T01:43:41;4.35;;;1.55;;
66721;SDS011;53633;49.932;10.884;2022-08-02T01:46:10;5.07;;;1.87;;
66721;SDS011;53633;49.932;10.884;2022-08-02T01:48:39;4.78;;;1.70;;
66721;SDS011;53633;49.932;10.884;2022-08-02T01:51:08;5.82;;;2.00;;
66721;SDS011;53633;49.932;10.884;2022-08-02T01:53:39;4.22;;;1.65;;
66721;SDS011;53633;49.932;10.884;2022-08-02T01:56:08;4.20;;;1.63;;
66721;SDS011;53633;49.932;10.884;2022-08-02T01:58:38;4.10;;;1.60;;
66721;SDS011;53633;49.932;10.884;2022-08-02T02:01:07;6.13;;;1.58;;
66721;SDS011;53633;49.932;10.884;2022-08-02T02:03:43;4.85;;;1.80;;
66721;SDS011;53633;49.932;10.884;2022-08-02T02:06:12;4.28;;;1.70;;
66721;SDS011;53633;49.932;10.884;2022-08-02T02:08:40;4.63;;;1.90;;
66721;SDS011;53633;49.932;10.884;2022-08-02T02:11:09;4.53;;;1.50;;
66721;SDS011;53633;49.932;10.884;2022-08-02T02:13:57;4.53;;;2.00;;
66721;SDS011;53633;49.932;10.884;2022-08-02T02:16:26;4.28;;;1.60;;
66721;SDS011;53633;49.932;10.884;2022-08-02T02:18:54;4.32;;;1.40;;
66721;SDS011;53633;49.932;10.884;2022-08-02T02:21:20;4.95;;;1.90;;
66721;SDS011;53633;49.932;10.884;2022-08-02T02:23:47;5.57;;;1.73;;
66721;SDS011;53633;49.932;10.884;2022-08-02T02:26:16;6.50;;;1.80;;
66721;SDS011;53633;49.932;10.884;2022-08-02T02:28:58;5.38;;;2.28;;
66721;SDS011;53633;49.932;10.884;2022-08-02T02:31:28;5.43;;;1.80;;
66721;SDS011;53633;49.932;10.884;2022-08-02T02:33:58;4.88;;;1.77;;
66721;SDS011;53633;49.932;10.884;2022-08-02T02:36:28;6.43;;;2.40;;
66721;SDS011;53633;49.932;10.884;2022-08-02T02:38:56;4.78;;;1.70;;
66721;SDS011;53633;49.932;10.884;2022-08-02T02:41:28;5.28;;;2.30;;
66721;SDS011;53633;49.932;10.884;2022-08-02T02:43:55;5.78;;;2.05;;
66721;SDS011;53633;49.932;10.884;2022-08-02T02:46:25;5.00;;;1.80;;
66721;SDS011;53633;49.932;10.884;2022-08-02T02:48:53;4.90;;;1.87;;
66721;SDS011;53633;49.932;10.884;2022-08-02T02:51:21;5.65;;;1.95;;
66721;SDS011;53633;49.932;10.884;2022-08-02T02:53:49;4.25;;;1.73;;
66721;SDS011;53633;49.932;10.884;2022-08-02T02:56:36;5.70;;;1.58;;
66721;SDS011;53633;49.932;10.884;2022-08-02T02:59:03;5.35;;;1.73;;
66721;SDS011;53633;49.932;10.884;2022-08-02T03:01:32;4.50;;;1.50;;
66721;SDS011;53633;49.932;10.884;2022-08-02T03:04:21;6.13;;;1.88;;
66721;SDS011;53633;49.932;10.884;2022-08-02T03:06:49;4.80;;;1.83;;
66721;SDS011;53633;49.932;10.884;2022-08-02T03:09:16;5.78;;;2.15;;
66721;SDS011;53633;49.932;10.884;2022-08-02T03:11:42;5.03;;;2.08;;
66721;SDS011;53633;49.932;10.884;2022-08-02T03:14:10;5.67;;;2.00;;
66721;SDS011;53633;49.932;10.884;2022-08-02T03:16:41;6.03;;;2.28;;
66721;SDS011;53633;49.932;10.884;2022-08-02T03:19:09;5.30;;;1.95;;
66721;SDS011;53633;49.932;10.884;2022-08-02T03:21:37;6.47;;;1.92;;
66721;SDS011;53633;49.932;10.884;2022-08-02T03:24:05;4.82;;;1.88;;
66721;SDS011;53633;49.932;10.884;2022-08-02T03:26:33;4.97;;;1.87;;
66721;SDS011;53633;49.932;10.884;2022-08-02T03:28:59;7.10;;;2.30;;
66721;SDS011;53633;49.932;10.884;2022-08-02T03:31:36;6.10;;;2.05;;
66721;SDS011;53633;49.932;10.884;2022-08-02T03:34:06;7.05;;;2.08;;
66721;SDS011;53633;49.932;10.884;2022-08-02T03:36:33;7.07;;;2.38;;
66721;SDS011;53633;49.932;10.884;2022-08-02T03:39:03;7.17;;;2.10;;
66721;SDS011;53633;49.932;10.884;2022-08-02T03:41:31;5.80;;;2.00;;
66721;SDS011;53633;49.932;10.884;2022-08-02T03:44:00;5.20;;;1.88;;
66721;SDS011;53633;49.932;10.884;2022-08-02T03:46:29;8.48;;;2.35;;
66721;SDS011;53633;49.932;10.884;2022-08-02T03:48:57;5.60;;;1.95;;
66721;SDS011;53633;49.932;10.884;2022-08-02T03:51:25;5.33;;;2.27;;
66721;SDS011;53633;49.932;10.884;2022-08-02T03:53:52;5.63;;;2.00;;
66721;SDS011;53633;49.932;10.884;2022-08-02T03:56:20;4.95;;;2.17;;
66721;SDS011;53633;49.932;10.884;2022-08-02T03:58:48;5.68;;;2.20;;
66721;SDS011;53633;49.932;10.884;2022-08-02T04:01:15;5.75;;;2.65;;
66721;SDS011;53633;49.932;10.884;2022-08-02T04:03:49;7.17;;;2.30;;
66721;SDS011;53633;49.932;10.884;2022-08-02T04:06:16;5.13;;;1.92;;
66721;SDS011;53633;49.932;10.884;2022-08-02T04:08:52;7.00;;;2.00;;
66721;SDS011;53633;49.932;10.884;2022-08-02T04:11:18;5.75;;;2.00;;
66721;SDS011;53633;49.932;10.884;2022-08-02T04:13:46;5.70;;;2.05;;
66721;SDS011;53633;49.932;10.884;2022-08-02T04:16:20;4.87;;;2.13;;
66721;SDS011;53633;49.932;10.884;2022-08-02T04:18:49;5.72;;;2.20;;
66721;SDS011;53633;49.932;10.884;2022-08-02T04:21:19;5.35;;;2.30;;
66721;SDS011;53633;49.932;10.884;2022-08-02T04:23:49;5.65;;;2.05;;
66721;SDS011;53633;49.932;10.884;2022-08-02T04:26:17;5.45;;;2.40;;
66721;SDS011;53633;49.932;10.884;2022-08-02T04:28:53;5.23;;;2.33;;
66721;SDS011;53633;49.932;10.884;2022-08-02T04:31:22;5.07;;;2.10;;
66721;SDS011;53633;49.932;10.884;2022-08-02T04:33:53;5.63;;;2.28;;
66721;SDS011;53633;49.932;10.884;2022-08-02T04:36:20;5.28;;;2.50;;
66721;SDS011;53633;49.932;10.884;2022-08-02T04:38:57;7.15;;;2.60;;
66721;SDS011;53633;49.932;10.884;2022-08-02T04:41:35;4.90;;;2.37;;
66721;SDS011;53633;49.932;10.884;2022-08-02T04:44:07;5.60;;;1.92;;
66721;SDS011;53633;49.932;10.884;2022-08-02T04:46:34;5.22;;;1.90;;
66721;SDS011;53633;49.932;10.884;2022-08-02T04:49:02;6.97;;;2.25;;
66721;SDS011;53633;49.932;10.884;2022-08-02T04:51:32;7.28;;;2.13;;
66721;SDS011;53633;49.932;10.884;2022-08-02T04:54:04;5.30;;;2.30;;
66721;SDS011;53633;49.932;10.884;2022-08-02T04:56:35;8.45;;;2.55;;
66721;SDS011;53633;49.932;10.884;2022-08-02T04:59:02;6.00;;;2.17;;
66721;SDS011;53633;49.932;10.884;2022-08-02T05:01:30;4.70;;;2.15;;
66721;SDS011;53633;49.932;10.884;2022-08-02T05:03:56;4.82;;;2.25;;
66721;SDS011;53633;49.932;10.884;2022-08-02T05:06:23;5.30;;;2.20;;
66721;SDS011;53633;49.932;10.884;2022-08-02T05:08:50;5.55;;;2.25;;
66721;SDS011;53633;49.932;10.884;2022-08-02T05:11:18;5.32;;;2.22;;
66721;SDS011;53633;49.932;10.884;2022-08-02T05:13:46;6.90;;;2.70;;
66721;SDS011;53633;49.932;10.884;2022-08-02T05:16:24;6.10;;;2.30;;
66721;SDS011;53633;49.932;10.884;2022-08-02T05:18:58;6.10;;;2.30;;
66721;SDS011;53633;49.932;10.884;2022-08-02T05:21:25;6.15;;;2.80;;
66721;SDS011;53633;49.932;10.884;2022-08-02T05:23:51;5.15;;;2.60;;
66721;SDS011;53633;49.932;10.884;2022-08-02T05:26:18;7.97;;;2.00;;
66721;SDS011;53633;49.932;10.884;2022-08-02T05:28:48;5.35;;;1.85;;
66721;SDS011;53633;49.932;10.884;2022-08-02T05:31:15;4.57;;;1.97;;
66721;SDS011;53633;49.932;10.884;2022-08-02T05:33:41;5.60;;;2.20;;
66721;SDS011;53633;49.932;10.884;2022-08-02T05:36:09;4.53;;;1.77;;
66721;SDS011;53633;49.932;10.884;2022-08-02T05:38:36;7.05;;;2.35;;
66721;SDS011;53633;49.932;10.884;2022-08-02T05:41:03;7.13;;;2.38;;
66721;SDS011;53633;49.932;10.884;2022-08-02T05:43:30;4.13;;;2.03;;
66721;SDS011;53633;49.932;10.884;2022-08-02T05:45:57;7.57;;;2.13;;
66721;SDS011;53633;49.932;10.884;2022-08-02T05:48:24;4.65;;;2.22;;
66721;SDS011;53633;49.932;10.884;2022-08-02T05:50:59;4.07;;;2.05;;
66721;SDS011;53633;49.932;10.884;2022-08-02T05:53:33;8.15;;;2.13;;
66721;SDS011;53633;49.932;10.884;2022-08-02T05:56:04;4.40;;;1.80;;
66721;SDS011;53633;49.932;10.884;2022-08-02T05:58:40;7.85;;;1.85;;
66721;SDS011;53633;49.932;10.884;2022-08-02T06:01:13;5.22;;;2.17;;
66721;SDS011;53633;49.932;10.884;2022-08-02T06:04:02;5.65;;;2.13;;
66721;SDS011;53633;49.932;10.884;2022-08-02T06:06:31;5.65;;;1.95;;
66721;SDS011;53633;49.932;10.884;2022-08-02T06:09:00;6.30;;;1.90;;
66721;SDS011;53633;49.932;10.884;2022-08-02T06:11:33;5.25;;;2.10;;
66721;SDS011;53633;49.932;10.884;2022-08-02T06:14:02;5.10;;;2.40;;
66721;SDS011;53633;49.932;10.884;2022-08-02T06:16:29;5.07;;;2.03;;
66721;SDS011;53633;49.932;10.884;2022-08-02T06:18:58;6.45;;;2.25;;
66721;SDS011;53633;49.932;10.884;2022-08-02T06:21:25;5.10;;;2.27;;
66721;SDS011;53633;49.932;10.884;2022-08-02T06:24:15;4.40;;;2.17;;
66721;SDS011;53633;49.932;10.884;2022-08-02T06:26:47;5.93;;;2.42;;
66721;SDS011;53633;49.932;10.884;2022-08-02T06:29:14;5.50;;;2.80;;
66721;SDS011;53633;49.932;10.884;2022-08-02T06:31:41;4.60;;;2.05;;
66721;SDS011;53633;49.932;10.884;2022-08-02T06:34:10;6.87;;;2.20;;
66721;SDS011;53633;49.932;10.884;2022-08-02T06:36:39;4.60;;;2.20;;
66721;SDS011;53633;49.932;10.884;2022-08-02T06:39:13;5.40;;;2.47;;
66721;SDS011;53633;49.932;10.884;2022-08-02T06:41:45;5.93;;;2.10;;
66721;SDS011;53633;49.932;10.884;2022-08-02T06:44:15;5.75;;;2.42;;
66721;SDS011;53633;49.932;10.884;2022-08-02T06:47:02;6.43;;;2.67;;
66721;SDS011;53633;49.932;10.884;2022-08-02T06:49:38;6.40;;;2.25;;
66721;SDS011;53633;49.932;10.884;2022-08-02T06:52:19;5.82;;;2.30;;
66721;SDS011;53633;49.932;10.884;2022-08-02T06:54:57;9.18;;;2.83;;
66721;SDS011;53633;49.932;10.884;2022-08-02T06:57:24;7.07;;;2.60;;
66721;SDS011;53633;49.932;10.884;2022-08-02T06:59:55;5.10;;;2.03;;
66721;SDS011;53633;49.932;10.884;2022-08-02T07:02:22;5.13;;;2.30;;
66721;SDS011;53633;49.932;10.884;2022-08-02T07:04:49;6.30;;;2.33;;
66721;SDS011;53633;49.932;10.884;2022-08-02T07:07:16;8.50;;;2.42;;
66721;SDS011;53633;49.932;10.884;2022-08-02T07:09:47;4.70;;;2.38;;
66721;SDS011;53633;49.932;10.884;2022-08-02T07:12:28;7.17;;;2.43;;
66721;SDS011;53633;49.932;10.884;2022-08-02T07:14:57;3.53;;;1.90;;
66721;SDS011;53633;49.932;10.884;2022-08-02T07:17:25;5.18;;;2.08;;
66721;SDS011;53633;49.932;10.884;2022-08-02T07:19:51;4.45;;;2.33;;
66721;SDS011;53633;49.932;10.884;2022-08-02T07:22:18;4.10;;;2.00;;
66721;SDS011;53633;49.932;10.884;2022-08-02T07:24:45;5.73;;;2.47;;
66721;SDS011;53633;49.932;10.884;2022-08-02T07:27:12;6.15;;;2.47;;
66721;SDS011;53633;49.932;10.884;2022-08-02T07:29:40;4.55;;;2.40;;
66721;SDS011;53633;49.932;10.884;2022-08-02T07:32:12;4.90;;;2.42;;
66721;SDS011;53633;49.932;10.884;2022-08-02T07:34:39;5.18;;;2.30;;
66721;SDS011;53633;49.932;10.884;2022-08-02T07:37:07;5.40;;;2.57;;
66721;SDS011;53633;49.932;10.884;2022-08-02T07:39:54;4.25;;;1.90;;
66721;SDS011;53633;49.932;10.884;2022-08-02T07:42:21;4.05;;;1.90;;
66721;SDS011;53633;49.932;10.884;2022-08-02T07:44:50;5.32;;;1.90;;
66721;SDS011;53633;49.932;10.884;2022-08-02T07:47:17;5.40;;;2.20;;
66721;SDS011;53633;49.932;10.884;2022-08-02T07:49:50;5.60;;;2.00;;
66721;SDS011;53633;49.932;10.884;2022-08-02T07:52:17;6.40;;;2.30;;
66721;SDS011;53633;49.932;10.884;2022-08-02T07:54:43;4.65;;;1.92;;
66721;SDS011;53633;49.932;10.884;2022-08-02T07:57:10;5.07;;;2.30;;
66721;SDS011;53633;49.932;10.884;2022-08-02T07:59:37;5.38;;;2.38;;
66721;SDS011;53633;49.932;10.884;2022-08-02T08:02:05;4.33;;;2.00;;
66721;SDS011;53633;49.932;10.884;2022-08-02T08:04:32;7.95;;;2.38;;
66721;SDS011;53633;49.932;10.884;2022-08-02T08:06:58;4.03;;;1.90;;
66721;SDS011;53633;49.932;10.884;2022-08-02T08:09:25;4.97;;;2.10;;
66721;SDS011;53633;49.932;10.884;2022-08-02T08:11:52;4.43;;;2.10;;
66721;SDS011;53633;49.932;10.884;2022-08-02T08:14:18;3.83;;;1.97;;
66721;SDS011;53633;49.932;10.884;2022-08-02T08:16:45;3.88;;;2.20;;
66721;SDS011;53633;49.932;10.884;2022-08-02T08:19:13;5.68;;;1.90;;
66721;SDS011;53633;49.932;10.884;2022-08-02T08:21:40;4.38;;;1.88;;
66721;SDS011;53633;49.932;10.884;2022-08-02T08:24:07;4.35;;;2.10;;
66721;SDS011;53633;49.932;10.884;2022-08-02T08:26:33;6.20;;;2.37;;
66721;SDS011;53633;49.932;10.884;2022-08-02T08:29:00;4.65;;;2.25;;
66721;SDS011;53633;49.932;10.884;2022-08-02T08:31:27;5.13;;;2.30;;
66721;SDS011;53633;49.932;10.884;2022-08-02T08:33:53;4.68;;;2.20;;
66721;SDS011;53633;49.932;10.884;2022-08-02T08:36:22;4.53;;;2.10;;
66721;SDS011;53633;49.932;10.884;2022-08-02T08:38:48;5.07;;;1.57;;
66721;SDS011;53633;49.932;10.884;2022-08-02T08:41:15;4.63;;;2.17;;
66721;SDS011;53633;49.932;10.884;2022-08-02T08:43:42;5.05;;;2.28;;
66721;SDS011;53633;49.932;10.884;2022-08-02T08:46:10;4.63;;;2.40;;
66721;SDS011;53633;49.932;10.884;2022-08-02T08:48:42;4.22;;;2.10;;
66721;SDS011;53633;49.932;10.884;2022-08-02T08:51:15;5.40;;;2.20;;
66721;SDS011;53633;49.932;10.884;2022-08-02T08:53:53;5.00;;;2.42;;
66721;SDS011;53633;49.932;10.884;2022-08-02T08:56:21;5.13;;;2.50;;
66721;SDS011;53633;49.932;10.884;2022-08-02T08:58:55;5.57;;;2.30;;
66721;SDS011;53633;49.932;10.884;2022-08-02T09:01:22;6.15;;;2.30;;
66721;SDS011;53633;49.932;10.884;2022-08-02T09:03:48;4.43;;;2.23;;
66721;SDS011;53633;49.932;10.884;2022-08-02T09:06:15;4.38;;;2.25;;
66721;SDS011;53633;49.932;10.884;2022-08-02T09:08:42;5.28;;;2.50;;
66721;SDS011;53633;49.932;10.884;2022-08-02T09:11:12;4.32;;;2.10;;
66721;SDS011;53633;49.932;10.884;2022-08-02T09:13:47;4.78;;;2.83;;
66721;SDS011;53633;49.932;10.884;2022-08-02T09:16:15;4.67;;;2.50;;
66721;SDS011;53633;49.932;10.884;2022-08-02T09:18:51;5.28;;;2.15;;
66721;SDS011;53633;49.932;10.884;2022-08-02T09:21:18;9.57;;;2.67;;
66721;SDS011;53633;49.932;10.884;2022-08-02T09:23:45;7.18;;;2.63;;
66721;SDS011;53633;49.932;10.884;2022-08-02T09:26:15;6.03;;;2.10;;
66721;SDS011;53633;49.932;10.884;2022-08-02T09:28:47;5.53;;;2.10;;
66721;SDS011;53633;49.932;10.884;2022-08-02T09:31:15;4.88;;;2.40;;
66721;SDS011;53633;49.932;10.884;2022-08-02T09:33:44;6.00;;;2.70;;
66721;SDS011;53633;49.932;10.884;2022-08-02T09:36:16;5.13;;;2.50;;
66721;SDS011;53633;49.932;10.884;2022-08-02T09:38:51;4.35;;;1.90;;
66721;SDS011;53633;49.932;10.884;2022-08-02T09:41:21;4.63;;;2.50;;
66721;SDS011;53633;49.932;10.884;2022-08-02T09:43:49;3.70;;;1.80;;
66721;SDS011;53633;49.932;10.884;2022-08-02T09:46:32;7.55;;;2.03;;
66721;SDS011;53633;49.932;10.884;2022-08-02T09:49:01;4.35;;;2.20;;
66721;SDS011;53633;49.932;10.884;2022-08-02T09:51:30;5.63;;;2.55;;
66721;SDS011;53633;49.932;10.884;2022-08-02T09:53:59;5.77;;;2.00;;
66721;SDS011;53633;49.932;10.884;2022-08-02T09:56:42;6.75;;;2.30;;
66721;SDS011;53633;49.932;10.884;2022-08-02T09:59:12;4.88;;;2.63;;
66721;SDS011;53633;49.932;10.884;2022-08-02T10:01:39;4.88;;;2.53;;
66721;SDS011;53633;49.932;10.884;2022-08-02T10:04:24;4.50;;;2.55;;
66721;SDS011;53633;49.932;10.884;2022-08-02T10:06:53;4.30;;;2.40;;
66721;SDS011;53633;49.932;10.884;2022-08-02T10:09:20;6.03;;;2.58;;
66721;SDS011;53633;49.932;10.884;2022-08-02T10:11:49;4.47;;;2.33;;
66721;SDS011;53633;49.932;10.884;2022-08-02T10:14:31;5.78;;;2.95;;
66721;SDS011;53633;49.932;10.884;2022-08-02T10:16:59;4.97;;;2.40;;
66721;SDS011;53633;49.932;10.884;2022-08-02T10:19:26;5.13;;;2.77;;
66721;SDS011;53633;49.932;10.884;2022-08-02T10:22:13;4.32;;;2.63;;
66721;SDS011;53633;49.932;10.884;2022-08-02T10:24:44;4.97;;;2.60;;
66721;SDS011;53633;49.932;10.884;2022-08-02T10:27:16;5.57;;;2.75;;
66721;SDS011;53633;49.932;10.884;2022-08-02T10:29:50;4.30;;;2.60;;
66721;SDS011;53633;49.932;10.884;2022-08-02T10:32:23;4.93;;;2.00;;
66721;SDS011;53633;49.932;10.884;2022-08-02T10:34:56;4.30;;;2.42;;
66721;SDS011;53633;49.932;10.884;2022-08-02T10:37:45;4.22;;;2.40;;
66721;SDS011;53633;49.932;10.884;2022-08-02T10:40:16;6.07;;;2.42;;
66721;SDS011;53633;49.932;10.884;2022-08-02T10:42:45;4.13;;;2.20;;
66721;SDS011;53633;49.932;10.884;2022-08-02T10:45:13;4.90;;;2.00;;
66721;SDS011;53633;49.932;10.884;2022-08-02T10:48:09;4.90;;;2.13;;
66721;SDS011;53633;49.932;10.884;2022-08-02T10:50:52;4.07;;;2.20;;
66721;SDS011;53633;49.932;10.884;2022-08-02T10:53:20;5.20;;;2.15;;
66721;SDS011;53633;49.932;10.884;2022-08-02T10:55:52;3.35;;;1.90;;
66721;SDS011;53633;49.932;10.884;2022-08-02T10:58:22;4.00;;;1.90;;
66721;SDS011;53633;49.932;10.884;2022-08-02T11:00:51;7.30;;;2.45;;
66721;SDS011;53633;49.932;10.884;2022-08-02T11:03:38;4.55;;;2.10;;
66721;SDS011;53633;49.932;10.884;2022-08-02T11:06:06;4.47;;;1.80;;
66721;SDS011;53633;49.932;10.884;2022-08-02T11:09:00;4.60;;;1.98;;
66721;SDS011;53633;49.932;10.884;2022-08-02T11:12:01;4.77;;;1.90;;
66721;SDS011;53633;49.932;10.884;2022-08-02T11:14:31;4.95;;;2.00;;
66721;SDS011;53633;49.932;10.884;2022-08-02T11:17:06;3.92;;;2.00;;
66721;SDS011;53633;49.932;10.884;2022-08-02T11:19:34;4.93;;;2.10;;
66721;SDS011;53633;49.932;10.884;2022-08-02T11:22:41;4.70;;;2.20;;
66721;SDS011;53633;49.932;10.884;2022-08-02T11:25:28;15.77;;;2.90;;
66721;SDS011;53633;49.932;10.884;2022-08-02T11:28:20;5.80;;;1.85;;
66721;SDS011;53633;49.932;10.884;2022-08-02T11:30:55;5.70;;;2.33;;
66721;SDS011;53633;49.932;10.884;2022-08-02T11:33:27;4.18;;;2.00;;
66721;SDS011;53633;49.932;10.884;2022-08-02T11:36:00;5.55;;;1.95;;
66721;SDS011;53633;49.932;10.884;2022-08-02T11:38:28;4.33;;;1.60;;
66721;SDS011;53633;49.932;10.884;2022-08-02T11:40:54;7.13;;;1.90;;
66721;SDS011;53633;49.932;10.884;2022-08-02T11:43:23;3.65;;;1.55;;
66721;SDS011;53633;49.932;10.884;2022-08-02T11:45:52;4.10;;;2.00;;
66721;SDS011;53633;49.932;10.884;2022-08-02T11:48:28;3.40;;;1.67;;
66721;SDS011;53633;49.932;10.884;2022-08-02T11:51:07;3.67;;;1.70;;
66721;SDS011;53633;49.932;10.884;2022-08-02T11:53:41;4.45;;;1.90;;
66721;SDS011;53633;49.932;10.884;2022-08-02T11:56:13;7.70;;;1.80;;
66721;SDS011;53633;49.932;10.884;2022-08-02T11:59:03;3.03;;;1.48;;
66721;SDS011;53633;49.932;10.884;2022-08-02T12:01:32;5.47;;;1.67;;
66721;SDS011;53633;49.932;10.884;2022-08-02T12:04:10;5.00;;;1.60;;
66721;SDS011;53633;49.932;10.884;2022-08-02T12:06:38;4.40;;;2.05;;
66721;SDS011;53633;49.932;10.884;2022-08-02T12:09:06;4.47;;;1.50;;
66721;SDS011;53633;49.932;10.884;2022-08-02T12:11:46;4.10;;;1.70;;
66721;SDS011;53633;49.932;10.884;2022-08-02T12:14:14;4.57;;;2.10;;
66721;SDS011;53633;49.932;10.884;2022-08-02T12:16:40;3.43;;;1.83;;
66721;SDS011;53633;49.932;10.884;2022-08-02T12:19:07;4.72;;;1.90;;
66721;SDS011;53633;49.932;10.884;2022-08-02T12:21:34;4.22;;;2.15;;
66721;SDS011;53633;49.932;10.884;2022-08-02T12:24:02;3.72;;;1.92;;
66721;SDS011;53633;49.932;10.884;2022-08-02T12:26:29;4.25;;;1.70;;
66721;SDS011;53633;49.932;10.884;2022-08-02T12:28:58;3.57;;;2.00;;
66721;SDS011;53633;49.932;10.884;2022-08-02T12:31:37;4.00;;;1.85;;
66721;SDS011;53633;49.932;10.884;2022-08-02T12:34:23;4.88;;;2.03;;
66721;SDS011;53633;49.932;10.884;2022-08-02T12:36:58;3.67;;;1.98;;
66721;SDS011;53633;49.932;10.884;2022-08-02T12:39:40;3.85;;;2.03;;
66721;SDS011;53633;49.932;10.884;2022-08-02T12:42:08;3.77;;;1.73;;
66721;SDS011;53633;49.932;10.884;2022-08-02T12:44:36;3.33;;;1.73;;
66721;SDS011;53633;49.932;10.884;2022-08-02T12:47:05;5.00;;;1.70;;
66721;SDS011;53633;49.932;10.884;2022-08-02T12:49:34;4.07;;;1.90;;
66721;SDS011;53633;49.932;10.884;2022-08-02T12:52:01;5.10;;;1.60;;
66721;SDS011;53633;49.932;10.884;2022-08-02T12:54:45;4.87;;;2.20;;
66721;SDS011;53633;49.932;10.884;2022-08-02T12:57:13;3.92;;;1.73;;
66721;SDS011;53633;49.932;10.884;2022-08-02T12:59:47;3.80;;;2.00;;
66721;SDS011;53633;49.932;10.884;2022-08-02T13:02:15;4.32;;;2.00;;
66721;SDS011;53633;49.932;10.884;2022-08-02T13:04:43;4.82;;;1.80;;
66721;SDS011;53633;49.932;10.884;2022-08-02T13:07:16;3.80;;;1.83;;
66721;SDS011;53633;49.932;10.884;2022-08-02T13:09:50;4.72;;;1.92;;
66721;SDS011;53633;49.932;10.884;2022-08-02T13:12:28;5.60;;;1.83;;
66721;SDS011;53633;49.932;10.884;2022-08-02T13:15:01;4.35;;;1.80;;
66721;SDS011;53633;49.932;10.884;2022-08-02T13:17:28;4.53;;;2.00;;
66721;SDS011;53633;49.932;10.884;2022-08-02T13:19:55;3.57;;;1.60;;
66721;SDS011;53633;49.932;10.884;2022-08-02T13:22:22;3.65;;;1.63;;
66721;SDS011;53633;49.932;10.884;2022-08-02T13:24:55;2.92;;;1.58;;
66721;SDS011;53633;49.932;10.884;2022-08-02T13:27:22;6.00;;;1.80;;
66721;SDS011;53633;49.932;10.884;2022-08-02T13:29:50;3.38;;;2.00;;
66721;SDS011;53633;49.932;10.884;2022-08-02T13:32:17;4.27;;;1.80;;
66721;SDS011;53633;49.932;10.884;2022-08-02T13:34:45;4.78;;;1.80;;
66721;SDS011;53633;49.932;10.884;2022-08-02T13:37:11;3.72;;;1.70;;
66721;SDS011;53633;49.932;10.884;2022-08-02T13:39:38;4.88;;;1.75;;
66721;SDS011;53633;49.932;10.884;2022-08-02T13:42:06;4.38;;;1.80;;
66721;SDS011;53633;49.932;10.884;2022-08-02T13:44:42;3.57;;;1.60;;
66721;SDS011;53633;49.932;10.884;2022-08-02T13:47:08;4.30;;;1.85;;
66721;SDS011;53633;49.932;10.884;2022-08-02T13:49:35;5.65;;;1.70;;
66721;SDS011;53633;49.932;10.884;2022-08-02T13:52:18;4.22;;;1.67;;
66721;SDS011;53633;49.932;10.884;2022-08-02T13:54:45;4.15;;;1.85;;
66721;SDS011;53633;49.932;10.884;2022-08-02T13:57:13;3.73;;;1.70;;
66721;SDS011;53633;49.932;10.884;2022-08-02T13:59:39;4.45;;;1.67;;
66721;SDS011;53633;49.932;10.884;2022-08-02T14:02:24;3.60;;;1.60;;
66721;SDS011;53633;49.932;10.884;2022-08-02T14:04:51;3.60;;;1.77;;
66721;SDS011;53633;49.932;10.884;2022-08-02T14:07:17;2.90;;;1.40;;
66721;SDS011;53633;49.932;10.884;2022-08-02T14:09:44;7.83;;;2.10;;
66721;SDS011;53633;49.932;10.884;2022-08-02T14:12:12;3.80;;;1.80;;
66721;SDS011;53633;49.932;10.884;2022-08-02T14:14:40;3.45;;;1.77;;
66721;SDS011;53633;49.932;10.884;2022-08-02T14:17:07;3.83;;;1.55;;
66721;SDS011;53633;49.932;10.884;2022-08-02T14:19:33;3.33;;;1.70;;
66721;SDS011;53633;49.932;10.884;2022-08-02T14:22:00;3.63;;;1.53;;
66721;SDS011;53633;49.932;10.884;2022-08-02T14:24:37;3.92;;;1.77;;
66721;SDS011;53633;49.932;10.884;2022-08-02T14:27:04;3.95;;;1.60;;
66721;SDS011;53633;49.932;10.884;2022-08-02T14:29:34;3.83;;;1.70;;
66721;SDS011;53633;49.932;10.884;2022-08-02T14:32:01;4.15;;;1.83;;
66721;SDS011;53633;49.932;10.884;2022-08-02T14:34:28;5.67;;;1.93;;
66721;SDS011;53633;49.932;10.884;2022-08-02T14:36:55;4.00;;;1.60;;
66721;SDS011;53633;49.932;10.884;2022-08-02T14:39:22;3.63;;;1.50;;
66721;SDS011;53633;49.932;10.884;2022-08-02T14:41:49;4.45;;;1.58;;
66721;SDS011;53633;49.932;10.884;2022-08-02T14:44:25;5.30;;;1.88;;
66721;SDS011;53633;49.932;10.884;2022-08-02T14:46:53;4.90;;;1.67;;
66721;SDS011;53633;49.932;10.884;2022-08-02T14:49:21;5.00;;;1.60;;
66721;SDS011;53633;49.932;10.884;2022-08-02T14:51:51;5.53;;;2.00;;
66721;SDS011;53633;49.932;10.884;2022-08-02T14:54:18;4.78;;;1.60;;
66721;SDS011;53633;49.932;10.884;2022-08-02T14:56:53;3.78;;;1.50;;